Terminal Aerodrome Forecast
Issued by NWS Wilmington, OH

Home | Current Version | Previous Version | Text Only | Print | Product List | Glossary On
Versions: 1 2 3 4 5 6 7 8 9 10 11 12 13 14 15 16 17 18 19 20 21 22
000
FTUS41 KILN 032000 AAA
TAFILN
TAF AMD
KILN 032024Z 0320/0418 19013G22KT 3SM -RA BR OVC009
      TEMPO 0320/0322 1/2SM FG OVC002
     FM040300 28012KT 2SM -RA BR OVC004
     FM041300 32012KT 1 1/2SM -SN BR OVC006=

USA.gov is the U.S. government's official web portal to all federal, state and local government web resources and services.